Latest Weather Observations for Shark Bay Airport

IDW60801

Issued at 11:34 pm WST Friday 28 February 2020 (issued every 10 minutes, with the page automatically refreshed every 10 minutes)

About weather observations | Map of weather stations | Latest weather observations for WA | Other Formats
Station Details ID: 006105 Name: SHARK BAY AIRPORT Lat: -25.89 Lon: 113.58 Height: 33.8 m
Data from the previous 72 hours. | See also: Recent months at Shark Bay Airport
Date/Time
WST
Temp
°C
App
Temp
°C
Dew
Point
°C
Rel
Hum
%
Delta-T
°C
Wind Press
QNH
hPa
Press
MSL
hPa
Rain since
9am
mm
Dir  Spd
km/h
Gust
km/h
Spd
kts
Gust
kts
28/11:30pm 23.5 22.4 20.2 82 2.1 SSW 26 33 14 18 1007.5 1007.3 0.0
28/11:00pm 23.6 22.9 20.3 82 2.1 SSW 24 35 13 19 1007.6 1007.4 0.0
28/10:30pm 23.6 22.8 20.1 81 2.3 SSW 24 33 13 18 1007.8 1007.6 0.0
28/10:00pm 23.7 22.6 20.2 81 2.3 SSW 26 35 14 19 1007.9 1007.7 0.0
28/09:30pm 23.8 22.6 20.1 80 2.4 SSW 26 35 14 19 1007.9 1007.7 0.0
28/09:00pm 24.0 22.7 19.9 78 2.7 SSW 26 35 14 19 1007.7 1007.5 0.0
28/08:30pm 24.1 22.7 19.6 76 2.9 SSW 26 35 14 19 1007.5 1007.3 0.0
28/08:00pm 24.4 23.3 19.5 74 3.2 SSW 24 35 13 19 1007.2 1007.0 0.0
28/07:30pm 24.8 23.0 19.6 73 3.4 SSW 28 35 15 19 1006.9 1006.7 0.0
28/07:00pm 25.4 23.9 19.5 70 3.8 SSW 26 37 14 20 1006.7 1006.5 0.0
28/06:30pm 26.2 24.1 18.9 64 4.7 SSW 28 35 15 19 1006.5 1006.3 0.0
28/06:00pm 27.0 24.8 18.6 60 5.4 SSW 28 39 15 21 1006.5 1006.3 0.0
28/05:30pm 27.9 25.4 18.9 58 5.8 SW 30 43 16 23 1006.3 1006.1 0.0
28/05:00pm 28.0 25.6 20.0 61 5.2 SW 32 41 17 22 1006.2 1006.0 0.0
28/04:30pm 28.2 25.5 19.2 58 5.8 SW 32 41 17 22 1006.1 1005.9 0.0
28/04:00pm 29.4 27.5 19.4 55 6.5 SW 28 39 15 21 1006.3 1006.1 0.0
28/03:30pm 29.2 26.7 18.9 53 6.7 SW 30 41 16 22 1006.3 1006.1 0.0
28/03:00pm 29.9 27.3 19.6 54 6.8 SW 32 41 17 22 1006.5 1006.3 0.0
28/02:30pm 30.2 28.0 19.6 53 6.9 SW 30 41 16 22 1006.8 1006.6 0.0
28/02:00pm 29.7 28.4 19.1 53 6.9 SW 24 35 13 19 1007.1 1006.9 0.0
28/01:30pm 30.0 29.8 20.5 56 6.3 SW 22 32 12 17 1007.4 1007.2 0.0
28/01:00pm 30.3 30.5 20.5 55 6.5 SW 20 32 11 17 1007.7 1007.5 0.0
28/12:30pm 30.5 30.1 20.1 53 6.9 SSW 22 33 12 18 1007.7 1007.5 0.0
28/12:00pm 30.0 29.6 19.4 53 6.9 SSW 20 33 11 18 1007.9 1007.7 0.0
28/11:30am 29.2 28.5 19.5 56 6.3 SSW 22 30 12 16 1008.3 1008.1 0.0
28/11:00am 28.6 27.5 19.5 58 5.9 SW 24 33 13 18 1008.4 1008.2 0.0
28/10:30am 28.5 27.7 20.0 60 5.6 SSW 24 32 13 17 1008.5 1008.3 0.0
28/10:00am 27.5 26.9 19.8 63 5.0 SSW 22 32 12 17 1008.6 1008.4 0.0
28/09:30am 26.9 26.4 20.0 66 4.5 SSW 22 32 12 17 1008.6 1008.4 0.0
28/09:00am 26.4 25.9 20.7 71 3.8 SSW 24 32 13 17 1008.5 1008.3 0.0
28/08:30am 25.3 24.1 20.1 73 3.4 SSW 26 32 14 17 1008.5 1008.3 0.0
28/08:00am 25.0 24.3 20.3 75 3.1 SSW 24 33 13 18 1008.2 1008.0 0.0
28/07:30am 25.0 24.8 20.5 76 2.9 SW 22 30 12 16 1007.8 1007.6 0.0
28/07:00am 24.3 24.4 20.4 79 2.5 SW 20 28 11 15 1007.4 1007.2 0.0
28/06:30am 23.8 24.0 20.5 82 2.1 SW 20 26 11 14 1007.4 1007.2 0.0
28/06:00am 23.9 24.1 20.6 82 2.2 SW 20 26 11 14 1007.3 1007.1 0.0
28/05:30am 24.0 25.0 21.1 84 1.9 SSW 17 22 9 12 1007.3 1007.1 0.0
28/05:00am 24.0 25.0 21.1 84 1.9 SW 17 24 9 13 1007.0 1006.8 0.0
28/04:30am 24.0 24.6 21.1 84 1.9 SSW 19 28 10 15 1006.8 1006.6 0.0
28/04:00am 24.2 25.2 21.1 83 2.0 SW 17 22 9 12 1007.0 1006.8 0.0
28/03:30am 24.3 25.4 21.2 83 2.0 SSW 17 22 9 12 1007.0 1006.8 0.0
28/03:00am 24.4 25.4 21.1 82 2.2 S 17 24 9 13 1006.9 1006.7 0.0
28/02:30am 24.2 25.5 20.9 82 2.2 S 15 20 8 11 1007.0 1006.8 0.0
28/02:00am 24.1 25.0 20.8 82 2.2 S 17 22 9 12 1007.2 1007.0 0.0
28/01:30am 24.2 24.8 21.1 83 2.0 SSW 19 26 10 14 1007.5 1007.3 0.0
28/01:00am 24.2 24.8 21.3 84 1.9 SSW 20 28 11 15 1007.5 1007.3 0.0
28/12:30am 24.2 24.1 21.5 85 1.8 SSW 24 32 13 17 1007.3 1007.1 0.0
28/12:00am 24.3 24.3 21.6 85 1.8 SSW 24 33 13 18 1007.3 1007.1 0.0
 
Date/Time
WST
Temp
°C
App
Temp
°C
Dew
Point
°C
Rel
Hum
%
Delta-T
°C
Wind Press
QNH
hPa
Press
MSL
hPa
Rain since
9am
mm
Dir  Spd
km/h
Gust
km/h
Spd
kts
Gust
kts
27/11:30pm 24.3 24.6 21.6 85 1.8 SSW 22 32 12 17 1007.2 1007.0 0.0
27/11:00pm 24.3 24.4 21.8 86 1.7 SW 24 35 13 19 1007.4 1007.2 0.0
27/10:30pm 24.3 23.6 21.8 86 1.7 SW 28 39 15 21 1007.5 1007.3 0.0
27/10:00pm 24.5 23.9 22.0 86 1.7 SW 28 37 15 20 1007.3 1007.1 0.0
27/09:30pm 24.7 24.5 22.0 85 1.8 SW 26 33 14 18 1007.8 1007.6 0.0
27/09:00pm 24.7 24.9 22.0 85 1.8 SW 24 35 13 19 1007.8 1007.6 0.0
27/08:30pm 24.8 24.6 22.1 85 1.8 SW 26 35 14 19 1007.7 1007.5 0.0
27/08:00pm 25.0 25.2 22.1 84 1.9 SW 24 32 13 17 1007.3 1007.1 0.0
27/07:30pm 25.4 25.7 22.3 83 2.1 SW 24 30 13 16 1007.1 1006.9 0.0
27/07:00pm 25.8 26.1 22.3 81 2.4 WSW 24 32 13 17 1006.7 1006.5 0.0
27/06:30pm 26.6 26.8 22.7 79 2.6 WSW 26 33 14 18 1006.4 1006.2 0.0
27/06:00pm 27.4 27.0 22.4 74 3.4 WSW 28 35 15 19 1006.2 1006.0 0.0
27/05:30pm 27.9 26.7 22.2 71 3.8 WSW 32 39 17 21 1006.0 1005.8 0.0
27/05:00pm 29.0 28.3 22.5 68 4.4 WSW 30 39 16 21 1005.9 1005.7 0.0
27/04:30pm 29.8 28.4 22.0 63 5.3 WSW 32 37 17 20 1005.9 1005.7 0.0
27/04:00pm 30.9 30.5 21.7 58 6.2 WSW 26 35 14 19 1005.8 1005.6 0.0
27/03:30pm 30.7 29.8 21.5 58 6.2 WSW 28 35 15 19 1005.9 1005.7 0.0
27/03:00pm 31.5 31.2 21.9 56 6.5 WSW 26 35 14 19 1006.1 1005.9 0.0
27/02:30pm 32.3 32.7 21.8 54 7.1 WSW 22 32 12 17 1006.2 1006.0 0.0
27/02:00pm 32.3 32.5 22.1 55 7.0 WSW 24 32 13 17 1006.3 1006.1 0.0
27/01:30pm 31.4 31.6 21.3 55 6.8 SW 22 30 12 16 1006.3 1006.1 0.0
27/01:00pm 31.8 32.1 22.2 56 6.6 SW 24 32 13 17 1006.4 1006.2 0.0
27/12:30pm 31.5 31.9 21.7 56 6.6 SW 22 32 12 17 1006.7 1006.5 0.0
27/12:00pm 30.7 29.8 21.5 58 6.2 SW 28 35 15 19 1006.7 1006.5 0.0
27/11:30am 30.9 30.4 21.4 57 6.4 SW 26 32 14 17 1006.8 1006.6 0.0
27/11:00am 30.3 29.5 21.7 60 5.8 SW 28 35 15 19 1007.1 1006.9 0.0
27/10:30am 29.1 28.7 21.6 64 5.0 SW 26 33 14 18 1007.2 1007.0 0.0
27/10:00am 28.3 27.7 21.3 65 4.7 SW 26 32 14 17 1007.4 1007.2 0.0
27/09:30am 27.7 27.1 22.0 71 3.8 SW 28 37 15 20 1007.3 1007.1 0.0
27/09:00am 27.3 27.2 22.3 74 3.4 SW 26 32 14 17 1007.5 1007.3 0.2
27/08:30am 26.9 26.7 22.1 75 3.2 SW 26 37 14 20 1007.4 1007.2 0.2
27/08:00am 25.9 25.5 22.4 81 2.4 SW 28 37 15 20 1007.1 1006.9 0.2
27/07:30am 25.3 25.2 22.2 83 2.1 SW 26 37 14 20 1007.1 1006.9 0.2
27/07:00am 24.5 24.8 22.2 87 1.5 SW 24 39 13 21 1006.8 1006.6 0.2
27/06:30am 24.1 24.3 22.0 88 1.4 SW 24 32 13 17 1006.8 1006.6 0.2
27/06:00am 24.1 24.3 22.0 88 1.4 SW 24 37 13 20 1006.4 1006.2 0.2
27/05:30am 24.3 24.3 22.4 89 1.3 SW 26 35 14 19 1006.1 1005.9 0.2
27/05:00am 24.4 24.8 22.5 89 1.3 SW 24 32 13 17 1005.9 1005.7 0.2
27/04:30am 24.4 24.6 22.1 87 1.5 SW 24 35 13 19 1005.7 1005.5 0.2
27/04:00am 24.4 24.6 22.1 87 1.5 SW 24 33 13 18 1005.9 1005.7 0.2
27/03:30am 24.5 25.0 22.0 86 1.7 SW 22 30 12 16 1006.1 1005.9 0.2
27/03:00am 24.8 25.0 22.1 85 1.8 SW 24 32 13 17 1006.2 1006.0 0.2
27/02:30am 25.0 25.1 21.9 83 2.1 SW 24 32 13 17 1006.2 1006.0 0.2
27/02:00am 24.9 24.5 21.6 82 2.2 SW 26 35 14 19 1006.2 1006.0 0.2
27/01:30am 24.8 24.5 21.9 84 1.9 SW 26 35 14 19 1006.2 1006.0 0.2
27/01:00am 24.7 25.4 22.2 86 1.7 SW 22 33 12 18 1006.3 1006.1 0.2
27/12:30am 24.8 24.3 22.1 85 1.8 SW 28 35 15 19 1006.4 1006.2 0.2
27/12:00am 24.9 24.3 22.0 84 1.9 SW 28 35 15 19 1006.7 1006.5 0.2
 
Date/Time
WST
Temp
°C
App
Temp
°C
Dew
Point
°C
Rel
Hum
%
Delta-T
°C
Wind Press
QNH
hPa
Press
MSL
hPa
Rain since
9am
mm
Dir  Spd
km/h
Gust
km/h
Spd
kts
Gust
kts
26/11:30pm 24.8 24.4 22.3 86 1.7 SW 28 35 15 19 1006.9 1006.7 0.2
26/11:00pm 24.8 24.7 22.3 86 1.7 SW 26 35 14 19 1007.0 1006.8 0.2
26/10:30pm 24.9 24.5 22.4 86 1.7 SSW 28 37 15 20 1007.2 1007.0 0.2
26/10:00pm 24.8 24.1 22.5 87 1.5 SSW 30 37 16 20 1007.4 1007.2 0.2
26/09:30pm 24.9 24.6 22.6 87 1.5 SW 28 37 15 20 1007.6 1007.4 0.2
26/09:00pm 25.0 24.8 22.7 87 1.6 SSW 28 37 15 20 1007.4 1007.2 0.2
26/08:30pm 25.2 24.7 22.9 87 1.6 SW 30 39 16 21 1007.2 1007.0 0.2
26/08:00pm 25.4 24.5 22.9 86 1.7 SSW 32 43 17 23 1006.9 1006.7 0.2
26/07:30pm 25.7 25.3 23.0 85 1.8 SW 30 39 16 21 1006.6 1006.4 0.2
26/07:00pm 26.0 25.9 22.9 83 2.1 SW 28 41 15 22 1006.4 1006.2 0.2
26/06:30pm 26.6 26.2 23.1 81 2.4 SW 30 39 16 21 1005.9 1005.7 0.2
26/06:00pm 27.9 27.5 23.1 75 3.3 SW 30 39 16 21 1005.7 1005.5 0.2
26/05:30pm 28.8 27.4 23.0 71 4.0 SW 35 46 19 25 1005.7 1005.5 0.2
26/05:00pm 29.4 28.3 22.9 68 4.5 SW 33 44 18 24 1005.7 1005.5 0.2
26/04:30pm 30.1 29.0 22.8 65 5.0 SW 33 43 18 23 1005.6 1005.4 0.2
26/04:00pm 30.9 29.9 23.0 62 5.4 SW 33 43 18 23 1005.6 1005.4 0.2
26/03:30pm 31.6 30.7 22.9 60 6.0 SW 32 41 17 22 1005.8 1005.6 0.2
26/03:00pm 31.8 30.7 22.5 58 6.4 SW 32 41 17 22 1006.2 1006.0 0.2
26/02:30pm 32.6 31.9 21.8 53 7.3 SW 28 35 15 19 1006.3 1006.1 0.2
26/02:00pm 34.0 33.7 21.8 49 8.3 SW 26 37 14 20 1006.5 1006.3 0.2
26/01:30pm 34.7 32.7 19.1 39 10.3 SW 28 35 15 19 1006.8 1006.6 0.2
26/01:00pm 33.7 34.1 22.5 52 7.7 SW 24 32 13 17 1007.2 1007.0 0.2
26/12:30pm 32.4 33.0 23.4 59 6.2 SW 26 33 14 18 1007.5 1007.3 0.2
26/12:00pm 31.9 32.0 22.6 58 6.4 SW 26 33 14 18 1007.8 1007.6 0.2
26/11:30am 31.5 31.8 22.2 57 6.3 SSW 24 32 13 17 1008.2 1008.0 0.2
26/11:00am 29.5 30.0 22.7 67 4.6 SW 24 32 13 17 1008.7 1008.5 0.2
26/10:30am 31.9 33.5 21.4 53 7.1 S 15 22 8 12 1008.8 1008.6 0.2
26/10:00am 30.1 32.0 22.0 62 5.5 S 15 20 8 11 1009.0 1008.8 0.0
26/09:30am 27.6 29.4 23.6 79 2.7 SSE 20 28 11 15 1008.8 1008.6 0.0
26/09:00am 24.7 26.9 23.3 92 1.0 S 17 26 9 14 1009.3 1009.1 0.4
26/08:30am 24.2 25.7 23.0 93 0.8 S 20 30 11 16 1009.3 1009.1 0.4
26/08:00am 25.9 27.2 21.6 77 2.9 S 17 20 9 11 1009.9 1009.7 0.0
26/07:30am 25.3 26.3 21.8 81 2.3 S 19 26 10 14 1009.2 1009.0 0.0
26/07:00am 24.0 26.2 21.9 88 1.4 S 13 17 7 9 1009.1 1008.9 0.0
26/06:30am 23.3 25.1 21.2 88 1.4 S 13 15 7 8 1009.1 1008.9 0.0
26/06:00am 23.2 25.0 21.1 88 1.4 S 13 17 7 9 1008.8 1008.6 0.0
26/05:30am 23.4 25.1 20.9 86 1.6 S 13 15 7 8 1008.8 1008.6 0.0
26/05:00am 23.7 25.4 21.0 85 1.8 S 13 15 7 8 1008.6 1008.4 0.0
26/04:30am 24.0 25.3 20.9 83 2.0 SSW 15 20 8 11 1008.4 1008.2 0.0
26/04:00am 24.0 25.2 20.7 82 2.2 S 15 20 8 11 1008.2 1008.0 0.0
26/03:30am 23.9 24.8 20.8 83 2.0 SSW 17 20 9 11 1008.1 1007.9 0.0
26/03:00am 23.9 25.2 20.8 83 2.0 S 15 20 8 11 1008.4 1008.2 0.0
26/02:30am 24.0 25.0 21.1 84 1.9 SSE 17 26 9 14 1008.8 1008.6 0.0
26/02:00am 24.1 25.3 21.4 85 1.8 S 17 26 9 14 1009.0 1008.8 0.0
26/01:30am 24.0 25.1 21.3 85 1.8 SSE 17 24 9 13 1009.4 1009.2 0.0
26/01:00am 23.9 25.1 21.4 86 1.7 S 17 20 9 11 1009.7 1009.5 0.0
26/12:30am 23.7 25.1 21.0 85 1.8 S 15 20 8 11 1009.5 1009.3 0.0
26/12:00am 24.1 25.3 21.4 85 1.8 SSW 17 24 9 13 1009.7 1009.5 0.0

Other formats

Comma delimited format used in spreadsheet applications
http://www.bom.gov.au/fwo/IDW60801/IDW60801.95402.axf

JavaScript Object Notation format (JSON) in row-major order
http://www.bom.gov.au/fwo/IDW60801/IDW60801.95402.json

Data quality

Most of these data are generated automatically and are frequently updated. Quality checks on data are not normally performed. It is possible for incorrect values to appear. Refer to information at About Latest Weather Observations and please check the disclaimer before using these data.